Аэропорт: Якутск. Якутск

ICAO: UEEE

METAR:
2021-04-21 20:30:00
UEEE 212030Z 34001MPS CAVOK M15/M19 Q1021 R23L/410160 NOSIG RMK QFE757
METAR:
2021-04-21 17:00:00
TAF UEEE 211700Z 2118/2224 32003G08MPS 9999 SCT030CB BKN100 TEMPO 2118/2124 VRB01MPS 0300 FZFG VV003